Time;durP1;ratioP1;P1;durP2;ratioP2;P2;SDS_P1;SDS_P2;PMS_P1;PMS_P2;Temp;Humidity;BMP_temperature;BMP_pressure;BME280_temperature;BME280_humidity;BME280_pressure;Samples;Min_cycle;Max_cycle;Signal;HPM_P1;HPM_P2
2023/05/04 00:02:06;;;;;;;9.25;3.63;;;;;;;;;;5028181;28;20055;-69
2023/05/04 00:04:32;;;;;;;10.85;4.05;;;;;;;;;;5032040;28;20060;-70
2023/05/04 00:06:59;;;;;;;8.70;3.92;;;;;;;;;;5030952;28;20160;-70
2023/05/04 00:09:25;;;;;;;12.95;3.65;;;;;;;;;;5025618;28;20058;-70
2023/05/04 00:11:53;;;;;;;8.50;3.55;;;;;;;;;;5022873;28;20061;-71
2023/05/04 00:14:20;;;;;;;7.77;3.70;;;;;;;;;;5023038;28;20551;-67
2023/05/04 00:16:46;;;;;;;8.90;3.67;;;;;;;;;;5016116;28;20141;-67
2023/05/04 00:19:13;;;;;;;7.75;3.95;;;;;;;;;;5017687;28;20057;-68
2023/05/04 00:21:39;;;;;;;8.75;3.47;;;;;;;;;;5007384;28;20144;-69
2023/05/04 00:24:05;;;;;;;8.25;4.00;;;;;;;;;;5021058;28;20063;-66
2023/05/04 00:26:32;;;;;;;9.00;4.03;;;;;;;;;;5016808;28;20117;-68
2023/05/04 00:29:00;;;;;;;7.95;3.70;;;;;;;;;;5018399;28;20053;-65
2023/05/04 00:31:27;;;;;;;9.60;4.00;;;;;;;;;;5014876;28;20058;-69
2023/05/04 00:33:54;;;;;;;7.88;3.83;;;;;;;;;;5014368;28;20144;-67
2023/05/04 00:36:20;;;;;;;11.27;3.80;;;;;;;;;;5016262;28;20064;-68
2023/05/04 00:38:48;;;;;;;6.50;3.60;;;;;;;;;;5017203;28;20188;-66
2023/05/04 00:41:14;;;;;;;6.70;3.63;;;;;;;;;;5020681;28;20065;-68
2023/05/04 00:43:41;;;;;;;9.63;3.47;;;;;;;;;;5009873;28;20108;-68
2023/05/04 00:46:09;;;;;;;7.65;3.72;;;;;;;;;;5040418;28;20148;-67
2023/05/04 00:48:35;;;;;;;8.90;3.53;;;;;;;;;;5016219;28;20082;-68
2023/05/04 00:51:02;;;;;;;11.07;4.00;;;;;;;;;;5019014;28;20319;-66
2023/05/04 00:53:28;;;;;;;7.60;3.65;;;;;;;;;;5014415;28;20065;-66
2023/05/04 00:55:55;;;;;;;8.02;3.65;;;;;;;;;;5014934;28;20065;-68
2023/05/04 00:58:21;;;;;;;7.63;3.30;;;;;;;;;;5013293;28;20117;-66
2023/05/04 01:00:47;;;;;;;10.02;3.40;;;;;;;;;;5020427;28;20057;-66
2023/05/04 01:03:15;;;;;;;6.82;3.50;;;;;;;;;;5051111;28;20071;-67
2023/05/04 01:05:46;;;;;;;7.33;3.87;;;;;;;;;;5014156;28;20061;-68
2023/05/04 01:08:14;;;;;;;8.00;3.60;;;;;;;;;;5033194;28;20080;-67
2023/05/04 01:10:45;;;;;;;6.60;3.38;;;;;;;;;;5040206;28;20060;-67
2023/05/04 01:13:12;;;;;;;7.30;3.50;;;;;;;;;;5036507;28;21073;-68
2023/05/04 01:15:39;;;;;;;5.80;3.15;;;;;;;;;;5014494;28;20059;-69
2023/05/04 01:18:05;;;;;;;9.18;4.10;;;;;;;;;;5032254;28;20053;-68
2023/05/04 01:20:34;;;;;;;9.85;3.70;;;;;;;;;;5020363;28;20175;-69
2023/05/04 01:23:02;;;;;;;6.45;3.40;;;;;;;;;;5019719;28;20071;-68
2023/05/04 01:25:32;;;;;;;9.20;3.72;;;;;;;;;;5017571;28;20148;-67
2023/05/04 01:28:02;;;;;;;7.03;3.97;;;;;;;;;;5024538;28;20067;-68
2023/05/04 01:30:30;;;;;;;6.88;3.53;;;;;;;;;;5055929;28;20159;-69
2023/05/04 01:32:57;;;;;;;6.50;3.45;;;;;;;;;;5058339;28;20140;-66
2023/05/04 01:35:24;;;;;;;6.60;3.10;;;;;;;;;;5054869;28;20489;-67
2023/05/04 01:37:50;;;;;;;8.38;3.47;;;;;;;;;;5038184;28;20051;-68
2023/05/04 01:40:18;;;;;;;9.70;3.40;;;;;;;;;;5092092;28;20147;-66
2023/05/04 01:42:44;;;;;;;9.07;3.93;;;;;;;;;;5059894;28;20083;-66
2023/05/04 01:45:11;;;;;;;6.93;3.70;;;;;;;;;;5091242;27;20163;-67
2023/05/04 01:47:38;;;;;;;7.20;3.63;;;;;;;;;;5068268;28;20059;-67
2023/05/04 01:50:05;;;;;;;5.90;3.10;;;;;;;;;;5056551;28;20058;-68
2023/05/04 01:52:32;;;;;;;8.13;3.60;;;;;;;;;;5093187;28;20060;-66
2023/05/04 01:54:58;;;;;;;6.88;3.50;;;;;;;;;;5056907;28;20067;-66
2023/05/04 01:57:26;;;;;;;6.93;3.28;;;;;;;;;;5073966;28;20125;-67
2023/05/04 01:59:52;;;;;;;7.57;3.60;;;;;;;;;;5056954;28;20066;-65
2023/05/04 02:02:19;;;;;;;6.50;3.40;;;;;;;;;;5061007;28;20058;-67
2023/05/04 02:04:45;;;;;;;7.85;3.67;;;;;;;;;;5057095;28;20052;-68
2023/05/04 02:07:12;;;;;;;8.27;3.50;;;;;;;;;;5093575;28;20051;-67
2023/05/04 02:09:39;;;;;;;10.50;3.42;;;;;;;;;;5089694;28;20063;-68
2023/05/04 02:12:05;;;;;;;7.35;3.42;;;;;;;;;;5047124;28;20052;-66
2023/05/04 02:14:33;;;;;;;6.28;3.35;;;;;;;;;;5079737;28;20087;-67
2023/05/04 02:16:59;;;;;;;7.37;3.33;;;;;;;;;;5074508;28;20063;-65
2023/05/04 02:19:26;;;;;;;7.10;3.33;;;;;;;;;;5077801;28;20064;-69
2023/05/04 02:21:55;;;;;;;7.10;3.30;;;;;;;;;;5052814;28;20056;-67
2023/05/04 02:24:21;;;;;;;5.35;2.97;;;;;;;;;;5087535;28;20055;-68
2023/05/04 02:26:48;;;;;;;9.30;3.60;;;;;;;;;;5074889;28;20074;-65
2023/05/04 02:29:14;;;;;;;6.63;3.17;;;;;;;;;;5078100;28;20059;-68
2023/05/04 02:31:42;;;;;;;6.80;3.38;;;;;;;;;;5053105;28;20116;-66
2023/05/04 02:34:09;;;;;;;8.03;3.50;;;;;;;;;;5070402;28;20060;-68
2023/05/04 02:36:35;;;;;;;7.47;3.50;;;;;;;;;;5073933;28;20136;-68
2023/05/04 02:39:01;;;;;;;7.50;3.67;;;;;;;;;;5077969;28;20062;-66
2023/05/04 02:41:28;;;;;;;7.75;3.42;;;;;;;;;;5053043;28;20047;-66
2023/05/04 02:43:54;;;;;;;7.22;3.40;;;;;;;;;;5057841;28;20060;-65
2023/05/04 02:46:22;;;;;;;6.70;3.08;;;;;;;;;;5070216;28;20083;-69
2023/05/04 02:48:49;;;;;;;11.18;3.63;;;;;;;;;;5078218;28;20059;-68
2023/05/04 02:51:16;;;;;;;6.17;3.20;;;;;;;;;;5060142;28;20066;-66
2023/05/04 02:53:43;;;;;;;7.95;3.67;;;;;;;;;;5053271;28;20052;-66
2023/05/04 02:56:09;;;;;;;8.48;3.40;;;;;;;;;;5085988;28;20113;-69
2023/05/04 02:58:35;;;;;;;6.57;3.42;;;;;;;;;;5074337;28;20056;-67
2023/05/04 03:01:02;;;;;;;6.65;3.35;;;;;;;;;;5093269;28;20066;-67
2023/05/04 03:03:28;;;;;;;11.40;3.58;;;;;;;;;;5052977;28;20040;-65
2023/05/04 03:05:56;;;;;;;8.30;3.47;;;;;;;;;;5076518;28;20139;-69
2023/05/04 03:08:22;;;;;;;8.27;3.35;;;;;;;;;;5047487;28;20137;-66
2023/05/04 03:10:49;;;;;;;5.93;3.13;;;;;;;;;;5073956;28;20155;-64
2023/05/04 03:13:16;;;;;;;6.60;3.40;;;;;;;;;;5052659;28;20131;-66
2023/05/04 03:15:42;;;;;;;8.27;3.42;;;;;;;;;;5059656;28;20531;-65
2023/05/04 03:18:09;;;;;;;8.73;2.95;;;;;;;;;;5081748;28;20067;-65
2023/05/04 03:20:35;;;;;;;9.02;3.40;;;;;;;;;;5077219;28;20079;-67
2023/05/04 03:23:03;;;;;;;7.78;3.50;;;;;;;;;;5085714;28;20134;-68
2023/05/04 03:25:29;;;;;;;9.13;3.53;;;;;;;;;;5092084;28;20060;-65
2023/05/04 03:27:56;;;;;;;8.10;3.60;;;;;;;;;;5054079;28;20079;-65
2023/05/04 03:30:22;;;;;;;7.07;3.50;;;;;;;;;;5054353;28;20711;-68
2023/05/04 03:32:49;;;;;;;9.55;3.38;;;;;;;;;;5089562;28;20056;-65
2023/05/04 03:35:15;;;;;;;8.65;3.78;;;;;;;;;;5090448;28;20056;-67
2023/05/04 03:37:42;;;;;;;8.05;3.20;;;;;;;;;;5077486;28;20079;-66
2023/05/04 03:40:10;;;;;;;7.75;3.38;;;;;;;;;;5066804;28;20070;-66
2023/05/04 03:42:37;;;;;;;7.90;3.40;;;;;;;;;;5075223;28;20091;-68
2023/05/04 03:45:03;;;;;;;7.30;3.30;;;;;;;;;;5074292;28;20068;-66
2023/05/04 03:47:30;;;;;;;7.20;3.53;;;;;;;;;;5057762;28;20056;-65
2023/05/04 03:49:56;;;;;;;10.93;3.78;;;;;;;;;;5056880;28;20328;-67
2023/05/04 03:52:23;;;;;;;10.27;3.50;;;;;;;;;;5073745;28;20106;-65
2023/05/04 03:54:49;;;;;;;9.00;3.13;;;;;;;;;;5093260;28;20076;-67
2023/05/04 03:57:17;;;;;;;7.75;3.70;;;;;;;;;;5080515;28;20146;-67
2023/05/04 03:59:43;;;;;;;6.97;3.20;;;;;;;;;;5092938;28;20150;-66
2023/05/04 04:02:10;;;;;;;6.60;3.40;;;;;;;;;;5070480;28;20055;-66
2023/05/04 04:04:36;;;;;;;8.85;3.42;;;;;;;;;;5059045;28;20407;-67
2023/05/04 04:07:05;;;;;;;7.15;3.15;;;;;;;;;;5080095;28;20048;-66
2023/05/04 04:09:31;;;;;;;8.63;3.30;;;;;;;;;;5070080;28;20048;-67
2023/05/04 04:11:58;;;;;;;9.23;3.38;;;;;;;;;;5050739;28;20056;-69
2023/05/04 04:14:26;;;;;;;7.10;3.20;;;;;;;;;;5096046;28;20140;-66
2023/05/04 04:16:52;;;;;;;7.07;3.03;;;;;;;;;;5076321;28;20135;-68
2023/05/04 04:19:19;;;;;;;9.05;2.97;;;;;;;;;;5061404;28;20051;-66
2023/05/04 04:21:45;;;;;;;6.20;3.15;;;;;;;;;;5055325;28;20044;-65
2023/05/04 04:24:12;;;;;;;7.63;3.20;;;;;;;;;;5072732;28;20056;-68
2023/05/04 04:26:38;;;;;;;8.13;3.10;;;;;;;;;;5091613;27;20222;-66
2023/05/04 04:29:05;;;;;;;7.03;3.50;;;;;;;;;;5095268;28;20052;-68
2023/05/04 04:31:32;;;;;;;7.10;3.30;;;;;;;;;;5088933;27;20074;-67
2023/05/04 04:33:59;;;;;;;9.95;3.50;;;;;;;;;;5074444;28;20076;-66
2023/05/04 04:36:26;;;;;;;7.53;3.30;;;;;;;;;;5091750;28;20051;-68
2023/05/04 04:38:52;;;;;;;7.57;3.20;;;;;;;;;;5095340;28;20048;-65
2023/05/04 04:41:19;;;;;;;7.55;3.22;;;;;;;;;;5057737;28;20163;-67
2023/05/04 04:43:46;;;;;;;7.53;3.38;;;;;;;;;;5091570;28;20044;-66
2023/05/04 04:46:12;;;;;;;8.77;3.38;;;;;;;;;;5052210;28;20056;-67
2023/05/04 04:48:40;;;;;;;7.75;3.63;;;;;;;;;;5066235;28;20124;-65
2023/05/04 04:51:09;;;;;;;7.93;2.95;;;;;;;;;;5079141;28;20102;-68
2023/05/04 04:53:36;;;;;;;6.80;3.10;;;;;;;;;;5091459;28;20111;-67
2023/05/04 04:56:04;;;;;;;6.57;3.50;;;;;;;;;;5087643;28;20154;-66
2023/05/04 04:58:31;;;;;;;5.72;2.78;;;;;;;;;;5075384;28;20205;-66
2023/05/04 05:01:00;;;;;;;7.03;2.97;;;;;;;;;;5096106;28;20051;-68
2023/05/04 05:03:26;;;;;;;8.02;3.10;;;;;;;;;;5054950;28;20063;-66
2023/05/04 05:06:00;;;;;;;5.80;3.13;;;;;;;;;;5075542;28;20059;-68
2023/05/04 05:08:26;;;;;;;6.13;3.17;;;;;;;;;;5061368;28;20056;-69
2023/05/04 05:10:53;;;;;;;7.35;3.38;;;;;;;;;;5093204;28;20084;-67
2023/05/04 05:13:19;;;;;;;6.53;3.15;;;;;;;;;;5059730;28;20052;-68
2023/05/04 05:15:46;;;;;;;8.15;3.40;;;;;;;;;;5094973;27;20059;-69
2023/05/04 05:18:12;;;;;;;6.35;3.17;;;;;;;;;;5080250;27;20080;-65
2023/05/04 05:20:40;;;;;;;6.70;3.53;;;;;;;;;;5061305;28;20055;-67
2023/05/04 05:23:08;;;;;;;7.97;3.25;;;;;;;;;;5072165;28;20141;-65
2023/05/04 05:25:35;;;;;;;6.22;2.80;;;;;;;;;;5093828;28;20074;-67
2023/05/04 05:28:02;;;;;;;7.83;3.53;;;;;;;;;;5060804;28;20127;-67
2023/05/04 05:30:29;;;;;;;8.23;3.33;;;;;;;;;;5078825;28;20064;-65
2023/05/04 05:32:55;;;;;;;8.43;3.65;;;;;;;;;;5075755;28;20142;-65
2023/05/04 05:35:22;;;;;;;6.35;3.33;;;;;;;;;;5060532;28;20124;-65
2023/05/04 05:37:49;;;;;;;7.63;3.58;;;;;;;;;;5078398;28;20059;-68
2023/05/04 05:40:17;;;;;;;6.47;2.88;;;;;;;;;;5067478;28;20079;-66
2023/05/04 05:42:44;;;;;;;;;;;;;;;;;;5075695;28;20059;-67
2023/05/04 05:45:11;;;;;;;6.95;3.13;;;;;;;;;;5074504;28;19928;-66
2023/05/04 05:47:37;;;;;;;5.72;3.13;;;;;;;;;;5059849;28;20048;-67
2023/05/04 05:50:05;;;;;;;6.90;3.80;;;;;;;;;;5050133;28;20060;-66
2023/05/04 05:52:32;;;;;;;9.68;3.22;;;;;;;;;;5047839;28;20136;-66
2023/05/04 05:54:58;;;;;;;8.20;3.50;;;;;;;;;;5074389;28;20456;-66
2023/05/04 05:57:26;;;;;;;7.68;2.90;;;;;;;;;;5092928;28;20059;-66
2023/05/04 05:59:53;;;;;;;6.15;3.13;;;;;;;;;;5074159;28;20141;-66
2023/05/04 06:02:19;;;;;;;6.03;3.10;;;;;;;;;;5074495;28;20055;-65
2023/05/04 06:04:45;;;;;;;7.35;3.17;;;;;;;;;;5056513;28;20058;-64
2023/05/04 06:07:13;;;;;;;6.78;3.38;;;;;;;;;;5059369;28;20116;-65
2023/05/04 06:09:39;;;;;;;6.45;3.13;;;;;;;;;;5055886;28;20058;-67
2023/05/04 06:12:11;;;;;;;7.85;3.33;;;;;;;;;;5067032;28;20052;-66
2023/05/04 06:14:38;;;;;;;6.38;2.90;;;;;;;;;;5073592;28;20058;-69
2023/05/04 06:17:05;;;;;;;8.80;3.10;;;;;;;;;;5092449;28;20060;-67
2023/05/04 06:19:33;;;;;;;7.50;2.92;;;;;;;;;;5064201;28;20075;-68
2023/05/04 06:22:00;;;;;;;;;;;;;;;;;;5049082;28;20056;-65
2023/05/04 06:24:28;;;;;;;6.60;2.97;;;;;;;;;;5078109;28;20031;-68
2023/05/04 06:26:55;;;;;;;7.00;3.10;;;;;;;;;;5089214;28;20056;-70
2023/05/04 06:29:21;;;;;;;8.43;3.35;;;;;;;;;;5078316;28;20064;-66
2023/05/04 06:31:49;;;;;;;9.93;3.25;;;;;;;;;;5053082;28;20058;-65
2023/05/04 06:34:18;;;;;;;5.82;3.20;;;;;;;;;;5054255;28;20104;-66
2023/05/04 06:36:44;;;;;;;;;;;;;;;;;;5093002;28;20071;-66
2023/05/04 06:39:11;;;;;;;8.10;2.92;;;;;;;;;;5084547;28;19920;-67
2023/05/04 06:41:37;;;;;;;7.75;3.50;;;;;;;;;;5070865;28;20102;-67
2023/05/04 06:44:04;;;;;;;7.20;3.30;;;;;;;;;;5069037;28;20054;-64
2023/05/04 06:46:31;;;;;;;6.43;3.33;;;;;;;;;;5059874;28;20162;-68
2023/05/04 06:48:59;;;;;;;5.07;2.78;;;;;;;;;;5076712;28;20056;-67
2023/05/04 06:51:25;;;;;;;6.30;3.42;;;;;;;;;;5071916;28;20060;-65
2023/05/04 06:53:52;;;;;;;8.50;3.17;;;;;;;;;;5073920;28;20151;-70
2023/05/04 06:56:19;;;;;;;8.65;4.10;;;;;;;;;;5072974;28;20068;-66
2023/05/04 06:58:45;;;;;;;6.82;3.13;;;;;;;;;;5076911;28;20068;-67
2023/05/04 07:01:12;;;;;;;6.85;3.13;;;;;;;;;;5073943;28;20506;-70
2023/05/04 07:03:38;;;;;;;6.72;3.22;;;;;;;;;;5072408;28;20147;-68
2023/05/04 07:06:07;;;;;;;5.93;3.05;;;;;;;;;;5053807;28;20056;-67
2023/05/04 07:08:33;;;;;;;6.90;2.97;;;;;;;;;;5074039;28;20063;-66
2023/05/04 07:11:00;;;;;;;6.47;3.03;;;;;;;;;;5057820;28;20062;-67
2023/05/04 07:13:26;;;;;;;6.50;3.30;;;;;;;;;;5053804;28;20060;-67
2023/05/04 07:15:53;;;;;;;10.57;3.55;;;;;;;;;;5085389;28;20140;-67
2023/05/04 07:18:21;;;;;;;8.48;3.10;;;;;;;;;;5068955;28;20118;-66
2023/05/04 07:20:47;;;;;;;6.95;3.13;;;;;;;;;;5074874;28;20060;-66
2023/05/04 07:23:15;;;;;;;8.70;3.20;;;;;;;;;;5044115;28;20056;-64
2023/05/04 07:25:42;;;;;;;9.80;3.10;;;;;;;;;;5096378;28;20056;-68
2023/05/04 07:28:10;;;;;;;7.45;3.45;;;;;;;;;;5085609;27;20507;-67
2023/05/04 07:30:36;;;;;;;5.70;2.97;;;;;;;;;;5092380;28;20065;-66
2023/05/04 07:33:03;;;;;;;7.65;3.22;;;;;;;;;;5056544;28;20166;-68
2023/05/04 07:35:29;;;;;;;7.47;3.08;;;;;;;;;;5063403;28;20051;-67
2023/05/04 07:37:56;;;;;;;7.55;3.38;;;;;;;;;;5072992;28;22188;-69
2023/05/04 07:40:24;;;;;;;6.30;3.28;;;;;;;;;;5059361;28;20052;-66
2023/05/04 07:42:50;;;;;;;6.22;3.10;;;;;;;;;;5060054;28;20056;-67
2023/05/04 07:45:17;;;;;;;7.55;3.08;;;;;;;;;;5081488;28;20056;-67
2023/05/04 07:47:43;;;;;;;7.43;3.47;;;;;;;;;;5080993;28;20487;-70
2023/05/04 07:50:10;;;;;;;6.35;2.80;;;;;;;;;;5050260;28;20095;-64
2023/05/04 07:52:37;;;;;;;7.78;3.05;;;;;;;;;;5076967;28;20056;-69
2023/05/04 07:55:03;;;;;;;9.18;3.20;;;;;;;;;;5058434;28;20067;-65
2023/05/04 07:57:32;;;;;;;7.35;3.35;;;;;;;;;;5080039;28;20067;-67
2023/05/04 07:59:58;;;;;;;;;;;;;;;;;;5086632;28;20056;-66
2023/05/04 08:02:25;;;;;;;7.97;2.60;;;;;;;;;;5074339;28;19973;-68
2023/05/04 08:04:51;;;;;;;8.43;2.97;;;;;;;;;;5076568;28;20152;-68
2023/05/04 08:07:19;;;;;;;7.18;2.65;;;;;;;;;;5079469;28;20070;-68
2023/05/04 08:09:45;;;;;;;5.63;2.90;;;;;;;;;;5067241;28;20051;-68
2023/05/04 08:12:12;;;;;;;8.60;3.10;;;;;;;;;;5085819;28;20150;-66
2023/05/04 08:14:40;;;;;;;6.43;3.10;;;;;;;;;;5076153;28;20070;-65
2023/05/04 08:17:06;;;;;;;6.95;2.90;;;;;;;;;;5080055;28;20139;-65
2023/05/04 08:19:33;;;;;;;9.32;3.30;;;;;;;;;;5077061;28;20055;-68
2023/05/04 08:21:59;;;;;;;6.80;3.28;;;;;;;;;;5051727;28;20056;-68
2023/05/04 08:24:26;;;;;;;6.55;2.97;;;;;;;;;;5077183;28;20301;-66
2023/05/04 08:26:58;;;;;;;8.77;3.60;;;;;;;;;;5059613;28;20063;-69
2023/05/04 08:29:25;;;;;;;9.77;3.47;;;;;;;;;;5094356;28;20063;-68
2023/05/04 08:31:55;;;;;;;8.85;3.30;;;;;;;;;;5088246;27;20232;-67
2023/05/04 08:34:22;;;;;;;8.32;3.90;;;;;;;;;;5058210;28;21680;-68
2023/05/04 08:36:49;;;;;;;9.73;3.15;;;;;;;;;;5091540;27;20168;-69
2023/05/04 08:39:15;;;;;;;8.25;3.35;;;;;;;;;;5079874;28;20056;-68
2023/05/04 08:41:42;;;;;;;8.45;3.40;;;;;;;;;;5054518;28;20101;-68
2023/05/04 08:44:10;;;;;;;13.95;3.20;;;;;;;;;;5053716;28;20056;-68
2023/05/04 08:46:39;;;;;;;5.75;2.95;;;;;;;;;;5075396;28;20066;-68
2023/05/04 08:49:07;;;;;;;11.55;3.50;;;;;;;;;;5060676;28;20064;-64
2023/05/04 08:51:35;;;;;;;9.32;3.20;;;;;;;;;;5063023;28;20079;-68
2023/05/04 08:54:03;;;;;;;6.13;3.20;;;;;;;;;;5085843;28;20167;-68
2023/05/04 08:56:30;;;;;;;9.95;3.53;;;;;;;;;;5057210;28;20553;-66
2023/05/04 08:59:00;;;;;;;8.88;3.40;;;;;;;;;;5079298;28;20060;-70
2023/05/04 09:01:27;;;;;;;9.77;3.20;;;;;;;;;;5074784;28;20059;-65
2023/05/04 09:03:54;;;;;;;6.57;3.17;;;;;;;;;;5047458;28;20048;-69
2023/05/04 09:06:22;;;;;;;8.63;3.60;;;;;;;;;;5070919;28;20977;-66
2023/05/04 09:08:49;;;;;;;5.00;2.58;;;;;;;;;;5057071;28;20063;-65
2023/05/04 09:11:15;;;;;;;6.68;3.30;;;;;;;;;;5076280;28;20056;-67
2023/05/04 09:13:42;;;;;;;7.88;3.17;;;;;;;;;;5047409;28;20079;-67
2023/05/04 09:16:09;;;;;;;13.65;3.70;;;;;;;;;;5071648;28;20062;-66
2023/05/04 09:18:36;;;;;;;7.32;3.22;;;;;;;;;;5075805;28;20067;-65
2023/05/04 09:21:02;;;;;;;7.22;3.42;;;;;;;;;;5079317;28;20056;-68
2023/05/04 09:23:30;;;;;;;7.18;3.45;;;;;;;;;;5071721;28;20142;-67
2023/05/04 09:25:57;;;;;;;7.97;3.40;;;;;;;;;;5076232;28;20137;-68
2023/05/04 09:28:34;;;;;;;8.02;3.95;;;;;;;;;;5069583;28;20443;-67
2023/05/04 09:31:01;;;;;;;7.93;3.45;;;;;;;;;;5080401;28;20138;-67
2023/05/04 09:33:28;;;;;;;9.88;3.92;;;;;;;;;;5070877;28;20060;-65
2023/05/04 09:35:55;;;;;;;10.70;3.55;;;;;;;;;;5058900;28;20159;-68
2023/05/04 09:38:26;;;;;;;9.52;3.90;;;;;;;;;;5087787;28;20060;-69
2023/05/04 09:40:54;;;;;;;8.70;4.20;;;;;;;;;;5079207;28;20071;-67
2023/05/04 09:43:20;;;;;;;7.53;3.67;;;;;;;;;;5063902;28;20083;-67
2023/05/04 09:45:47;;;;;;;10.15;3.70;;;;;;;;;;5059146;28;20118;-66
2023/05/04 09:48:17;;;;;;;7.38;3.40;;;;;;;;;;5049103;28;20352;-68
2023/05/04 09:50:47;;;;;;;9.57;3.78;;;;;;;;;;5094608;28;20646;-68
2023/05/04 09:53:15;;;;;;;10.57;3.65;;;;;;;;;;5076542;28;20113;-69
2023/05/04 09:55:42;;;;;;;7.47;3.75;;;;;;;;;;5078996;28;20067;-66
2023/05/04 09:58:10;;;;;;;8.80;3.92;;;;;;;;;;5066277;28;20072;-68
2023/05/04 10:00:37;;;;;;;6.88;3.67;;;;;;;;;;5077882;28;20451;-67
2023/05/04 10:03:05;;;;;;;7.75;3.97;;;;;;;;;;5073904;28;20121;-64
2023/05/04 10:05:32;;;;;;;11.45;4.28;;;;;;;;;;5074589;28;20134;-68
2023/05/04 10:08:01;;;;;;;9.20;4.28;;;;;;;;;;5073036;28;20072;-66
2023/05/04 10:10:27;;;;;;;8.55;4.03;;;;;;;;;;5078687;28;21058;-66
2023/05/04 10:12:56;;;;;;;9.40;4.35;;;;;;;;;;5089770;28;20066;-66
2023/05/04 10:15:22;;;;;;;;;;;;;;;;;;5075917;28;20543;-69
2023/05/04 10:17:58;;;;;;;9.00;3.97;;;;;;;;;;5063916;28;20239;-66
2023/05/04 10:20:42;;;;;;;8.23;4.22;;;;;;;;;;5085376;28;20058;-68
2023/05/04 10:23:26;;;;;;;10.35;4.25;;;;;;;;;;5055870;28;20106;-68
2023/05/04 10:26:02;;;;;;;8.82;3.90;;;;;;;;;;5089516;28;20048;-65
2023/05/04 10:28:35;;;;;;;12.15;4.00;;;;;;;;;;5057452;28;20101;-67
2023/05/04 10:31:03;;;;;;;8.43;4.10;;;;;;;;;;5073717;28;20060;-65
2023/05/04 10:33:41;;;;;;;8.02;3.75;;;;;;;;;;5056752;28;20047;-68
2023/05/04 10:36:08;;;;;;;8.23;3.70;;;;;;;;;;5068192;28;20067;-70
2023/05/04 10:38:35;;;;;;;9.90;4.13;;;;;;;;;;5092381;28;20121;-70
2023/05/04 10:41:01;;;;;;;7.10;3.80;;;;;;;;;;5094746;28;20062;-69
2023/05/04 10:43:31;;;;;;;13.32;4.50;;;;;;;;;;5094627;28;20055;-66
2023/05/04 10:45:59;;;;;;;9.85;4.30;;;;;;;;;;5093405;28;20050;-68
2023/05/04 10:48:26;;;;;;;;;;;;;;;;;;5080216;28;21269;-67
2023/05/04 10:50:54;;;;;;;8.65;4.07;;;;;;;;;;5063041;28;20031;-66
2023/05/04 10:53:30;;;;;;;7.47;3.73;;;;;;;;;;5057401;28;20059;-68
2023/05/04 10:55:59;;;;;;;9.23;4.70;;;;;;;;;;5060205;28;20380;-68
2023/05/04 10:58:26;;;;;;;;;;;;;;;;;;5081476;28;20051;-67
2023/05/04 11:00:53;;;;;;;14.18;4.00;;;;;;;;;;5055979;28;19924;-68
2023/05/04 11:03:20;;;;;;;10.82;4.03;;;;;;;;;;5027313;28;20152;-67
2023/05/04 11:05:50;;;;;;;13.25;4.80;;;;;;;;;;5056678;28;20053;-68
2023/05/04 11:08:19;;;;;;;11.73;4.18;;;;;;;;;;5050442;28;20080;-66
2023/05/04 11:10:46;;;;;;;8.57;4.13;;;;;;;;;;5051792;28;20084;-66
2023/05/04 11:13:12;;;;;;;8.73;4.15;;;;;;;;;;5050073;28;20122;-66
2023/05/04 11:15:46;;;;;;;9.77;4.18;;;;;;;;;;5056892;28;20180;-66
2023/05/04 11:18:12;;;;;;;10.23;4.53;;;;;;;;;;5066227;28;20369;-66
2023/05/04 11:20:39;;;;;;;9.00;4.88;;;;;;;;;;5055865;28;20060;-68
2023/05/04 11:23:09;;;;;;;11.27;4.88;;;;;;;;;;5051432;28;20048;-66
2023/05/04 11:25:37;;;;;;;9.32;4.50;;;;;;;;;;5059863;28;20048;-66
2023/05/04 11:28:04;;;;;;;9.55;4.50;;;;;;;;;;5046009;28;20064;-67
2023/05/04 11:30:32;;;;;;;12.20;4.78;;;;;;;;;;5057333;28;20067;-68
2023/05/04 11:32:59;;;;;;;13.52;4.80;;;;;;;;;;5052597;28;20052;-65
2023/05/04 11:35:25;;;;;;;9.52;4.35;;;;;;;;;;5057753;28;20164;-69
2023/05/04 11:37:54;;;;;;;9.60;4.07;;;;;;;;;;5067580;28;20059;-68
2023/05/04 11:40:21;;;;;;;10.27;4.90;;;;;;;;;;5051080;28;20071;-68
2023/05/04 11:42:50;;;;;;;16.57;5.10;;;;;;;;;;5063066;28;20146;-67
2023/05/04 11:45:17;;;;;;;11.32;4.65;;;;;;;;;;5071426;28;20062;-67
2023/05/04 11:47:44;;;;;;;9.43;4.15;;;;;;;;;;5051799;28;20060;-65
2023/05/04 11:50:11;;;;;;;13.43;4.65;;;;;;;;;;5046214;28;20057;-68
2023/05/04 11:52:39;;;;;;;11.13;4.03;;;;;;;;;;5046548;28;20057;-67
2023/05/04 11:55:07;;;;;;;10.27;4.13;;;;;;;;;;5051599;28;20079;-67
2023/05/04 11:57:35;;;;;;;10.60;4.80;;;;;;;;;;5057209;28;20123;-65
2023/05/04 12:00:07;;;;;;;8.98;4.30;;;;;;;;;;5045955;28;20257;-68
2023/05/04 12:02:33;;;;;;;10.60;4.30;;;;;;;;;;5063675;28;20056;-68
2023/05/04 12:04:59;;;;;;;11.13;4.95;;;;;;;;;;5056472;28;20060;-65
2023/05/04 12:07:26;;;;;;;12.60;4.57;;;;;;;;;;5056901;28;20137;-68
2023/05/04 12:09:55;;;;;;;14.50;5.20;;;;;;;;;;5075815;28;20056;-67
2023/05/04 12:12:22;;;;;;;7.93;4.30;;;;;;;;;;5069588;28;20126;-65
2023/05/04 12:14:49;;;;;;;8.23;4.32;;;;;;;;;;5088317;27;20051;-64
2023/05/04 12:17:16;;;;;;;7.30;3.72;;;;;;;;;;5079536;28;20125;-66
2023/05/04 12:19:53;;;;;;;8.15;3.97;;;;;;;;;;5077257;28;20087;-67
2023/05/04 12:22:26;;;;;;;10.30;4.90;;;;;;;;;;5071011;28;20052;-68
2023/05/04 12:24:53;;;;;;;9.20;4.30;;;;;;;;;;5062860;28;20055;-67
2023/05/04 12:27:22;;;;;;;11.27;4.70;;;;;;;;;;5079333;28;20063;-67
2023/05/04 12:29:55;;;;;;;8.77;4.60;;;;;;;;;;5077505;28;20068;-67
2023/05/04 12:32:22;;;;;;;9.10;4.30;;;;;;;;;;5076272;28;20160;-69
2023/05/04 12:34:49;;;;;;;9.95;4.30;;;;;;;;;;5058217;28;20135;-65
2023/05/04 12:37:15;;;;;;;9.50;4.63;;;;;;;;;;5094942;28;20220;-66
2023/05/04 12:39:42;;;;;;;8.65;4.40;;;;;;;;;;5059027;28;20146;-68
2023/05/04 12:42:08;;;;;;;8.40;4.03;;;;;;;;;;5053202;28;20123;-67
2023/05/04 12:44:35;;;;;;;8.65;4.53;;;;;;;;;;5076257;28;20123;-69
2023/05/04 12:47:01;;;;;;;10.90;4.78;;;;;;;;;;5077202;28;20056;-66
2023/05/04 12:49:29;;;;;;;11.55;4.90;;;;;;;;;;5094753;28;20086;-65
2023/05/04 12:51:56;;;;;;;9.93;4.63;;;;;;;;;;5067432;28;20052;-67
2023/05/04 12:54:23;;;;;;;10.43;4.75;;;;;;;;;;5079128;28;20053;-66
2023/05/04 12:56:52;;;;;;;10.05;4.60;;;;;;;;;;5091129;28;20070;-66
2023/05/04 12:59:18;;;;;;;9.43;4.70;;;;;;;;;;5095036;28;20121;-69
2023/05/04 13:01:45;;;;;;;12.75;4.90;;;;;;;;;;5074409;28;20060;-68
2023/05/04 13:04:11;;;;;;;8.75;4.65;;;;;;;;;;5073736;28;20060;-71
2023/05/04 13:06:41;;;;;;;12.40;4.65;;;;;;;;;;5058937;28;20105;-71
2023/05/04 13:09:07;;;;;;;9.75;4.78;;;;;;;;;;5079331;28;20083;-67
2023/05/04 13:11:34;;;;;;;12.13;5.13;;;;;;;;;;5074009;28;20056;-70
2023/05/04 13:14:00;;;;;;;11.70;4.97;;;;;;;;;;5044573;28;20288;-69
2023/05/04 13:16:29;;;;;;;10.88;4.90;;;;;;;;;;5075117;28;20052;-67
2023/05/04 13:19:04;;;;;;;9.20;5.00;;;;;;;;;;5080904;28;20088;-65
2023/05/04 13:21:31;;;;;;;10.00;4.93;;;;;;;;;;5074530;28;20056;-66
2023/05/04 13:24:00;;;;;;;9.55;4.70;;;;;;;;;;5073447;28;20054;-69
2023/05/04 13:26:26;;;;;;;11.23;4.80;;;;;;;;;;5075813;28;20080;-68
2023/05/04 13:28:53;;;;;;;12.63;5.32;;;;;;;;;;5079953;28;20146;-67
2023/05/04 13:31:19;;;;;;;10.15;4.45;;;;;;;;;;5077640;28;20066;-67
2023/05/04 13:33:49;;;;;;;10.23;4.93;;;;;;;;;;5071755;28;20138;-66
2023/05/04 13:36:15;;;;;;;10.55;4.65;;;;;;;;;;5054933;28;20052;-67
2023/05/04 13:38:42;;;;;;;10.25;4.60;;;;;;;;;;5091405;28;20060;-67
2023/05/04 13:41:10;;;;;;;9.50;4.65;;;;;;;;;;5079030;28;20075;-71
2023/05/04 13:43:37;;;;;;;11.48;4.90;;;;;;;;;;5063114;28;20059;-68
2023/05/04 13:46:04;;;;;;;9.68;4.40;;;;;;;;;;5053585;28;20059;-68
2023/05/04 13:48:31;;;;;;;12.43;4.65;;;;;;;;;;5091884;28;20105;-69
2023/05/04 13:50:57;;;;;;;12.77;4.50;;;;;;;;;;5078652;28;20064;-67
2023/05/04 13:53:26;;;;;;;10.07;4.65;;;;;;;;;;5071678;28;20052;-68
2023/05/04 13:55:56;;;;;;;9.73;4.78;;;;;;;;;;5092515;28;20059;-64
2023/05/04 13:58:24;;;;;;;11.55;4.47;;;;;;;;;;5054921;28;20182;-68
2023/05/04 14:00:50;;;;;;;12.98;4.78;;;;;;;;;;5093641;28;20056;-66
2023/05/04 14:03:17;;;;;;;12.57;5.07;;;;;;;;;;5052131;28;20052;-67
2023/05/04 14:05:44;;;;;;;9.25;4.43;;;;;;;;;;5056496;28;20075;-66
2023/05/04 14:08:10;;;;;;;9.85;4.63;;;;;;;;;;5048292;28;20059;-68
2023/05/04 14:10:37;;;;;;;8.60;4.55;;;;;;;;;;5058871;28;20052;-66
2023/05/04 14:13:03;;;;;;;8.50;4.88;;;;;;;;;;5052778;28;20060;-69
2023/05/04 14:15:31;;;;;;;8.88;4.57;;;;;;;;;;5076562;28;20058;-68
2023/05/04 14:17:58;;;;;;;10.05;4.38;;;;;;;;;;5052254;28;20121;-68
2023/05/04 14:20:24;;;;;;;12.02;5.10;;;;;;;;;;5074180;28;20056;-69
2023/05/04 14:22:50;;;;;;;13.27;4.53;;;;;;;;;;5074272;28;20048;-67
2023/05/04 14:25:17;;;;;;;9.13;4.75;;;;;;;;;;5074660;28;20150;-68
2023/05/04 14:27:43;;;;;;;11.57;4.25;;;;;;;;;;5077979;28;20055;-70
2023/05/04 14:30:11;;;;;;;9.13;4.70;;;;;;;;;;5067390;28;20056;-68
2023/05/04 14:32:39;;;;;;;11.63;4.30;;;;;;;;;;5087980;28;20048;-68
2023/05/04 14:35:09;;;;;;;11.70;4.55;;;;;;;;;;5074707;28;20151;-69
2023/05/04 14:37:36;;;;;;;7.95;4.07;;;;;;;;;;5076736;28;20056;-66
2023/05/04 14:40:03;;;;;;;10.20;4.93;;;;;;;;;;5082493;28;20051;-69
2023/05/04 14:42:30;;;;;;;10.68;4.85;;;;;;;;;;5075400;28;20063;-66
2023/05/04 14:44:56;;;;;;;10.80;4.82;;;;;;;;;;5055828;28;20181;-66